Archival Weather

Fukuoka

Fukuoka, Japan (RJFF)

Report from: Tuesday, August 16, 2022 12:22 PM JST
Current time: Sunday, November 27, 2022 5:12 PM JST

Current weather
Weather history
Weather forecast

Present weatherLight rain showers
Temperature29.0°C (84.2°F)
Heat index36.8°C (98.2°F)
Dew point27.0°C (80.6°F)
Winds 10 kts (5.1 m/s, 11.5 mph) South (170°)
Visibility6.2 mi. (10 km)
Clouds Few clouds 1,000 ft. (305 m)
Few clouds with cumulonimbus 2,500 ft. (762 m)
Scattered clouds 3,500 ft. (1,067 m)
Ceiling: Broken clouds 4,500 ft. (1,372 m)
Altimeter29.74 in.Hg (1007 mB)
Precip. events C 12:01 PM
Relative humidity89 %
Density altitude2,292 ft. (699 m)
Remarks Special weather observation
Cumulonimbus clouds observed west moving northeast
Flight conditions Visual Meteorological Conditions
Raw dataSPJP31 KWBC 160334 SPECI RJFF 160322Z 17010KT 9999 -SHRA FEW010 FEW025CB SCT035 BKN045 29/27 Q1007 RMK 1CU010 1CB025 4CU035 6CU045 A2974 CB 15KM W MOV NE
An error has occurred. This application may no longer respond until reloaded. Reload 🗙